createdAt,value
2023-02-06T00:00:30.771Z,102667.19
2023-02-06T00:01:37.398Z,102660.94
2023-02-06T00:02:39.722Z,102659.22
2023-02-06T00:03:41.916Z,102661.06
2023-02-06T00:04:44.129Z,102666.44
2023-02-06T00:05:54.738Z,102664.72
2023-02-06T00:06:56.992Z,102668.47
2023-02-06T00:07:59.177Z,102659.44
2023-02-06T00:09:02.009Z,102656.84
2023-02-06T00:10:05.215Z,102650.56
2023-02-06T00:11:09.999Z,102655.09
2023-02-06T00:12:14.071Z,102656.06
2023-02-06T00:13:16.317Z,102648.94
2023-02-06T00:14:18.531Z,102657.13
2023-02-06T00:15:21.289Z,102651.84
2023-02-06T00:16:28.792Z,102652.78
2023-02-06T00:17:35.629Z,102646.66
2023-02-06T00:18:37.858Z,102649.44
2023-02-06T00:19:40.089Z,102644.16
2023-02-06T00:20:42.445Z,102645.09
2023-02-06T00:21:44.700Z,102645.22
2023-02-06T00:22:46.920Z,102645.31
2023-02-06T00:23:49.613Z,102642.63
2023-02-06T00:24:51.793Z,102638.19
2023-02-06T00:25:54.049Z,102645.41
2023-02-06T00:26:57.184Z,102644.63
2023-02-06T00:28:01.182Z,102638.50
2023-02-06T00:29:03.654Z,102643.97
2023-02-06T00:30:09.359Z,102647.66
2023-02-06T00:31:13.232Z,102642.34
2023-02-06T00:32:16.801Z,102639.75
2023-02-06T00:33:21.192Z,102646.00
2023-02-06T00:34:23.491Z,102636.19
2023-02-06T00:35:25.849Z,102638.13
2023-02-06T00:36:28.134Z,102631.88
2023-02-06T00:37:30.473Z,102637.38
2023-02-06T00:38:34.981Z,102628.50
2023-02-06T00:39:37.320Z,102627.66
2023-02-06T00:40:39.617Z,102631.28
2023-02-06T00:41:41.909Z,102628.72
2023-02-06T00:42:44.220Z,102628.81
2023-02-06T00:43:47.140Z,102628.88
2023-02-06T00:44:49.354Z,102629.88
2023-02-06T00:45:56.346Z,102629.00
2023-02-06T00:46:59.092Z,102629.94
2023-02-06T00:48:01.294Z,102644.47
2023-02-06T00:49:03.737Z,102637.38
2023-02-06T00:50:06.348Z,102640.94
2023-02-06T00:51:08.822Z,102639.19
2023-02-06T00:52:13.568Z,102633.91
2023-02-06T00:53:16.449Z,102633.06
2023-02-06T00:54:20.947Z,102637.56
2023-02-06T00:55:23.384Z,102633.22
2023-02-06T00:56:25.639Z,102635.06
2023-02-06T00:57:27.841Z,102636.91
2023-02-06T00:58:30.512Z,102641.41
2023-02-06T00:59:32.697Z,102640.56
2023-02-06T01:00:35.001Z,102639.69
2023-02-06T01:01:37.305Z,102648.75
2023-02-06T01:02:39.573Z,102644.31
2023-02-06T01:03:41.837Z,102647.84
2023-02-06T01:04:44.888Z,102644.41
2023-02-06T01:05:47.192Z,102640.84
2023-02-06T01:06:49.481Z,102635.44
2023-02-06T01:07:51.960Z,102638.16
2023-02-06T01:08:54.136Z,102636.41
2023-02-06T01:09:56.437Z,102640.84
2023-02-06T01:11:00.852Z,102644.47
2023-02-06T01:12:03.453Z,102652.56
2023-02-06T01:13:06.098Z,102645.47
2023-02-06T01:14:08.856Z,102651.72
2023-02-06T01:15:14.375Z,102650.75
2023-02-06T01:16:19.810Z,102647.19
2023-02-06T01:17:24.278Z,102636.50
2023-02-06T01:18:27.956Z,102639.31
2023-02-06T01:19:30.638Z,102649.97
2023-02-06T01:20:33.334Z,102637.41
2023-02-06T01:21:36.978Z,102639.19
2023-02-06T01:22:40.307Z,102634.69
2023-02-06T01:23:42.720Z,102640.09
2023-02-06T01:24:46.136Z,102633.81
2023-02-06T01:25:48.410Z,102639.19
2023-02-06T01:26:54.027Z,102629.38
2023-02-06T01:27:56.679Z,102632.97
2023-02-06T01:28:58.929Z,102632.88
2023-02-06T01:30:01.189Z,102629.38
2023-02-06T01:31:15.194Z,102626.63
2023-02-06T01:32:17.468Z,102628.44
2023-02-06T01:33:19.827Z,102625.75
2023-02-06T01:34:22.117Z,102630.38
2023-02-06T01:35:24.424Z,102626.78
2023-02-06T01:36:27.378Z,102629.50
2023-02-06T01:37:31.649Z,102633.06
2023-02-06T01:38:37.485Z,102642.00
2023-02-06T01:39:39.944Z,102642.84
2023-02-06T01:40:42.651Z,102648.44
2023-02-06T01:41:45.663Z,102647.38
2023-02-06T01:42:47.889Z,102640.25
2023-02-06T01:44:11.293Z,102641.91
2023-02-06T01:45:26.023Z,102639.19
2023-02-06T01:46:28.230Z,102647.28
2023-02-06T01:47:30.467Z,102635.66
2023-02-06T01:48:38.579Z,102643.72
2023-02-06T01:49:48.819Z,102653.63
2023-02-06T01:50:54.436Z,102652.78
2023-02-06T01:52:19.334Z,102657.19
2023-02-06T01:53:22.593Z,102659.91
2023-02-06T01:54:25.245Z,102656.31
2023-02-06T01:55:27.879Z,102658.16
2023-02-06T01:56:38.355Z,102668.81
2023-02-06T01:57:40.684Z,102668.06
2023-02-06T01:58:46.572Z,102668.06
2023-02-06T01:59:53.534Z,102673.34
2023-02-06T02:00:59.287Z,102670.66
2023-02-06T02:02:01.579Z,102676.06
2023-02-06T02:03:05.077Z,102680.38
2023-02-06T02:04:10.916Z,102682.28
2023-02-06T02:05:13.491Z,102683.25
2023-02-06T02:06:19.112Z,102683.19
2023-02-06T02:07:27.275Z,102690.25
2023-02-06T02:08:36.397Z,102686.63
2023-02-06T02:09:38.631Z,102687.56
2023-02-06T02:10:40.907Z,102696.44
2023-02-06T02:11:43.408Z,102686.50
2023-02-06T02:12:45.657Z,102683.94
2023-02-06T02:13:50.349Z,102677.69
2023-02-06T02:14:54.397Z,102671.34
2023-02-06T02:16:05.704Z,102673.94
2023-02-06T02:17:26.722Z,102674.78
2023-02-06T02:18:32.243Z,102670.28
2023-02-06T02:19:52.692Z,102666.59
2023-02-06T02:21:33.544Z,102662.09
2023-02-06T02:22:50.246Z,102663.06
2023-02-06T02:23:57.662Z,102655.84
2023-02-06T02:25:15.404Z,102657.47
2023-02-06T02:27:10.518Z,102657.56
2023-02-06T02:28:18.949Z,102657.56
2023-02-06T02:29:42.921Z,102649.50
2023-02-06T02:31:40.648Z,102640.56
2023-02-06T02:33:04.985Z,102637.75
2023-02-06T02:34:34.751Z,102635.19
2023-02-06T02:36:22.226Z,102624.41
2023-02-06T02:38:01.672Z,102607.34
2023-02-06T02:39:25.077Z,102605.66
2023-02-06T02:40:40.178Z,102604.78
2023-02-06T02:41:52.346Z,102596.69
2023-02-06T02:43:21.469Z,102599.38
2023-02-06T02:44:35.932Z,102594.97
2023-02-06T02:45:51.715Z,102594.88
2023-02-06T02:46:58.277Z,102588.59
2023-02-06T02:48:06.799Z,102585.91
2023-02-06T02:49:19.859Z,102587.75
2023-02-06T02:50:23.298Z,102592.25
2023-02-06T02:51:26.040Z,102592.25
2023-02-06T02:52:28.658Z,102586.03
2023-02-06T02:53:31.768Z,102589.56
2023-02-06T02:54:36.165Z,102594.22
2023-02-06T02:55:39.002Z,102591.41
2023-02-06T02:56:41.544Z,102585.16
2023-02-06T02:57:46.884Z,102591.50
2023-02-06T02:58:53.667Z,102592.38
2023-02-06T02:59:59.817Z,102586.97
2023-02-06T03:01:13.385Z,102586.13
2023-02-06T03:02:36.496Z,102570.81
2023-02-06T03:03:42.143Z,102577.09
2023-02-06T03:05:04.571Z,102578.91
2023-02-06T03:06:26.442Z,102575.25
2023-02-06T03:07:44.926Z,102574.41
2023-02-06T03:08:55.983Z,102570.81
2023-02-06T03:10:21.424Z,102568.13
2023-02-06T03:11:24.207Z,102574.41
2023-02-06T03:12:38.139Z,102574.41
2023-02-06T03:13:49.232Z,102577.09
2023-02-06T03:15:00.002Z,102573.41
2023-02-06T03:16:17.106Z,102569.75
2023-02-06T03:17:28.625Z,102560.94
2023-02-06T03:18:37.036Z,102567.16
2023-02-06T03:19:47.523Z,102566.22
2023-02-06T03:20:51.409Z,102561.78
2023-02-06T03:21:54.452Z,102566.22
2023-02-06T03:22:59.045Z,102569.88
2023-02-06T03:24:06.809Z,102570.72
2023-02-06T03:25:14.149Z,102577.00
2023-02-06T03:26:21.183Z,102577.84
2023-02-06T03:27:26.035Z,102581.50
2023-02-06T03:28:34.356Z,102578.72
2023-02-06T03:29:38.349Z,102568.91
2023-02-06T03:30:42.680Z,102565.34
2023-02-06T03:31:55.604Z,102564.28
2023-02-06T03:33:04.751Z,102567.94
2023-02-06T03:34:19.992Z,102573.34
2023-02-06T03:35:30.698Z,102575.16
2023-02-06T03:36:35.283Z,102572.34
2023-02-06T03:37:38.991Z,102576.03
2023-02-06T03:38:50.990Z,102575.03
2023-02-06T03:39:54.465Z,102570.53
2023-02-06T03:40:59.920Z,102577.66
2023-02-06T03:42:05.868Z,102575.94
2023-02-06T03:43:08.953Z,102578.72
2023-02-06T03:44:17.776Z,102584.84
2023-02-06T03:45:26.584Z,102581.31
2023-02-06T03:46:30.453Z,102578.50
2023-02-06T03:47:35.820Z,102585.75
2023-02-06T03:48:43.756Z,102589.28
2023-02-06T03:49:48.102Z,102599.09
2023-02-06T03:50:54.443Z,102596.41
2023-02-06T03:52:06.168Z,102598.13
2023-02-06T03:53:10.486Z,102594.56
2023-02-06T03:54:17.441Z,102586.38
2023-02-06T03:55:22.388Z,102592.66
2023-02-06T03:56:31.608Z,102582.84
2023-02-06T03:57:35.834Z,102574.75
2023-02-06T03:58:38.059Z,102571.19
2023-02-06T03:59:42.632Z,102570.34
2023-02-06T04:00:46.812Z,102567.53
2023-02-06T04:01:58.696Z,102573.81
2023-02-06T04:03:01.585Z,102582.84
2023-02-06T04:04:04.530Z,102567.53
2023-02-06T04:05:07.308Z,102571.09
2023-02-06T04:06:09.719Z,102571.97
2023-02-06T04:07:20.618Z,102568.31
2023-02-06T04:08:22.885Z,102575.50
2023-02-06T04:09:26.274Z,102565.63
2023-02-06T04:10:28.625Z,102563.03
2023-02-06T04:11:30.906Z,102560.41
2023-02-06T04:12:33.155Z,102565.78
2023-02-06T04:13:35.774Z,102562.25
2023-02-06T04:14:38.181Z,102567.63
2023-02-06T04:15:40.525Z,102562.34
2023-02-06T04:16:44.455Z,102566.00
2023-02-06T04:17:59.298Z,102565.78
2023-02-06T04:19:02.067Z,102564.09
2023-02-06T04:20:05.296Z,102561.41
2023-02-06T04:21:08.196Z,102571.19
2023-02-06T04:22:14.974Z,102571.19
2023-02-06T04:23:17.713Z,102571.09
2023-02-06T04:24:21.258Z,102564.94
2023-02-06T04:25:23.792Z,102569.28
2023-02-06T04:26:26.086Z,102569.28
2023-02-06T04:27:28.318Z,102564.72
2023-02-06T04:28:30.656Z,102562.16
2023-02-06T04:29:32.795Z,102565.72
2023-02-06T04:30:35.388Z,102569.28
2023-02-06T04:31:37.692Z,102571.00
2023-02-06T04:32:39.954Z,102571.00
2023-02-06T04:33:42.488Z,102575.44
2023-02-06T04:34:46.755Z,102574.44
2023-02-06T04:35:49.390Z,102573.69
2023-02-06T04:36:51.677Z,102569.16
2023-02-06T04:37:55.645Z,102576.28
2023-02-06T04:38:57.920Z,102569.06
2023-02-06T04:40:00.132Z,102571.75
2023-02-06T04:41:09.022Z,102573.50
2023-02-06T04:42:11.488Z,102573.59
2023-02-06T04:43:13.870Z,102574.44
2023-02-06T04:44:16.106Z,102573.50
2023-02-06T04:45:18.449Z,102591.38
2023-02-06T04:46:21.137Z,102590.53
2023-02-06T04:47:23.637Z,102595.91
2023-02-06T04:48:29.595Z,102592.16
2023-02-06T04:49:32.032Z,102586.78
2023-02-06T04:50:34.535Z,102598.50
2023-02-06T04:51:36.892Z,102604.66
2023-02-06T04:52:39.148Z,102607.25
2023-02-06T04:53:41.347Z,102606.38
2023-02-06T04:54:44.821Z,102608.13
2023-02-06T04:55:47.281Z,102610.81
2023-02-06T04:56:49.548Z,102603.59
2023-02-06T04:57:51.877Z,102598.19
2023-02-06T04:58:54.337Z,102602.63
2023-02-06T04:59:56.591Z,102602.63
2023-02-06T05:00:59.513Z,102609.84
2023-02-06T05:02:04.170Z,102611.59
2023-02-06T05:03:07.804Z,102604.34
2023-02-06T05:04:10.128Z,102597.13
2023-02-06T05:05:12.440Z,102599.75
2023-02-06T05:06:16.656Z,102607.72
2023-02-06T05:07:18.868Z,102608.69
2023-02-06T05:08:21.133Z,102614.94
2023-02-06T05:09:23.736Z,102614.84
2023-02-06T05:10:27.117Z,102615.72
2023-02-06T05:11:29.598Z,102615.59
2023-02-06T05:12:31.779Z,102605.78
2023-02-06T05:13:34.714Z,102602.13
2023-02-06T05:14:36.935Z,102609.25
2023-02-06T05:15:39.531Z,102593.09
2023-02-06T05:16:41.810Z,102592.97
2023-02-06T05:17:44.042Z,102591.13
2023-02-06T05:18:46.831Z,102592.03
2023-02-06T05:19:49.464Z,102583.84
2023-02-06T05:20:52.653Z,102589.13
2023-02-06T05:21:54.901Z,102572.09
2023-02-06T05:22:57.637Z,102576.53
2023-02-06T05:23:59.832Z,102574.59
2023-02-06T05:25:03.772Z,102583.44
2023-02-06T05:26:06.504Z,102580.75
2023-02-06T05:27:11.484Z,102579.78
2023-02-06T05:28:13.786Z,102575.25
2023-02-06T05:29:16.413Z,102570.72
2023-02-06T05:30:20.541Z,102573.41
2023-02-06T05:31:23.169Z,102575.13
2023-02-06T05:32:25.457Z,102578.63
2023-02-06T05:33:28.071Z,102578.50
2023-02-06T05:34:30.243Z,102587.44
2023-02-06T05:35:33.705Z,102598.16
2023-02-06T05:36:37.195Z,102593.59
2023-02-06T05:37:39.359Z,102599.00
2023-02-06T05:38:41.624Z,102597.09
2023-02-06T05:39:43.898Z,102601.47
2023-02-06T05:40:46.710Z,102599.84
2023-02-06T05:41:48.895Z,102590.69
2023-02-06T05:42:51.115Z,102590.59
2023-02-06T05:43:53.620Z,102587.81
2023-02-06T05:44:56.650Z,102578.75
2023-02-06T05:46:00.212Z,102588.47
2023-02-06T05:47:02.831Z,102599.25
2023-02-06T05:48:05.367Z,102588.28
2023-02-06T05:49:07.545Z,102592.78
2023-02-06T05:50:09.930Z,102588.28
2023-02-06T05:51:12.182Z,102592.78
2023-02-06T05:52:15.766Z,102590.00
2023-02-06T05:53:18.633Z,102582.78
2023-02-06T05:54:21.033Z,102583.56
2023-02-06T05:55:23.271Z,102579.97
2023-02-06T05:56:26.679Z,102576.31
2023-02-06T05:57:28.934Z,102576.22
2023-02-06T05:58:31.397Z,102587.94
2023-02-06T05:59:33.851Z,102589.78
2023-02-06T06:00:36.110Z,102586.13
2023-02-06T06:01:38.837Z,102585.19
2023-02-06T06:02:41.117Z,102585.06
2023-02-06T06:03:43.531Z,102581.41
2023-02-06T06:04:46.882Z,102580.53
2023-02-06T06:05:49.519Z,102569.97
2023-02-06T06:06:52.442Z,102569.84
2023-02-06T06:07:54.789Z,102567.16
2023-02-06T06:08:57.495Z,102569.75
2023-02-06T06:10:00.340Z,102574.19
2023-02-06T06:11:03.002Z,102571.47
2023-02-06T06:12:05.404Z,102570.53
2023-02-06T06:13:08.520Z,102573.00
2023-02-06T06:14:11.879Z,102572.03
2023-02-06T06:15:14.129Z,102572.03
2023-02-06T06:16:16.501Z,102573.66
2023-02-06T06:17:18.732Z,102567.31
2023-02-06T06:18:27.703Z,102568.16
2023-02-06T06:19:29.967Z,102570.75
2023-02-06T06:20:32.213Z,102569.78
2023-02-06T06:21:34.454Z,102575.06
2023-02-06T06:22:36.759Z,102568.72
2023-02-06T06:23:39.051Z,102562.53
2023-02-06T06:24:41.229Z,102569.69
2023-02-06T06:25:44.089Z,102574.97
2023-02-06T06:26:46.405Z,102579.38
2023-02-06T06:27:48.675Z,102581.97
2023-02-06T06:28:51.525Z,102577.34
2023-02-06T06:29:53.806Z,102577.47
2023-02-06T06:31:04.010Z,102568.41
2023-02-06T06:32:06.764Z,102571.00
2023-02-06T06:33:09.132Z,102579.84
2023-02-06T06:34:11.443Z,102574.44
2023-02-06T06:35:13.738Z,102576.19
2023-02-06T06:36:16.786Z,102579.75
2023-02-06T06:37:18.984Z,102581.47
2023-02-06T06:38:21.187Z,102575.94
2023-02-06T06:39:23.467Z,102568.75
2023-02-06T06:40:26.527Z,102579.31
2023-02-06T06:41:28.932Z,102585.59
2023-02-06T06:42:31.345Z,102577.38
2023-02-06T06:43:33.854Z,102579.19
2023-02-06T06:44:38.332Z,102589.91
2023-02-06T06:45:40.632Z,102577.28
2023-02-06T06:46:42.871Z,102582.56
2023-02-06T06:47:45.110Z,102587.00
2023-02-06T06:48:47.383Z,102578.91
2023-02-06T06:49:49.560Z,102586.03
2023-02-06T06:50:51.962Z,102586.78
2023-02-06T06:51:55.268Z,102579.56
2023-02-06T06:52:59.297Z,102579.56
2023-02-06T06:54:01.503Z,102580.41
2023-02-06T06:55:03.884Z,102578.47
2023-02-06T06:56:08.175Z,102582.91
2023-02-06T06:57:13.320Z,102575.56
2023-02-06T06:58:15.986Z,102574.59
2023-02-06T06:59:18.198Z,102574.47
2023-02-06T07:00:20.595Z,102568.13
2023-02-06T07:01:23.264Z,102576.97
2023-02-06T07:02:25.570Z,102571.47
2023-02-06T07:03:29.861Z,102579.56
2023-02-06T07:04:33.324Z,102577.63
2023-02-06T07:05:36.851Z,102573.09
2023-02-06T07:06:42.300Z,102579.34
2023-02-06T07:07:44.661Z,102578.28
2023-02-06T07:08:47.290Z,102588.97
2023-02-06T07:09:49.642Z,102583.44
2023-02-06T07:10:52.216Z,102585.19
2023-02-06T07:11:54.562Z,102586.91
2023-02-06T07:12:59.157Z,102575.16
2023-02-06T07:14:01.489Z,102582.28
2023-02-06T07:15:05.341Z,102577.75
2023-02-06T07:16:08.113Z,102582.19
2023-02-06T07:17:10.736Z,102583.03
2023-02-06T07:18:13.178Z,102577.63
2023-02-06T07:19:16.060Z,102581.28
2023-02-06T07:20:18.366Z,102576.66
2023-02-06T07:21:20.776Z,102570.31
2023-02-06T07:22:23.323Z,102566.63
2023-02-06T07:23:27.119Z,102571.94
2023-02-06T07:24:29.367Z,102569.09
2023-02-06T07:25:32.025Z,102563.72
2023-02-06T07:26:34.310Z,102569.00
2023-02-06T07:27:36.512Z,102567.91
2023-02-06T07:28:39.999Z,102570.63
2023-02-06T07:29:42.290Z,102568.69
2023-02-06T07:30:44.644Z,102573.19
2023-02-06T07:31:47.942Z,102567.81
2023-02-06T07:32:50.208Z,102569.41
2023-02-06T07:33:52.443Z,102564.91
2023-02-06T07:34:54.669Z,102565.75
2023-02-06T07:35:57.148Z,102563.81
2023-02-06T07:37:00.308Z,102561.97
2023-02-06T07:38:02.922Z,102561.97
2023-02-06T07:39:05.286Z,102557.22
2023-02-06T07:40:09.005Z,102557.22
2023-02-06T07:41:12.779Z,102555.25
2023-02-06T07:42:15.133Z,102556.16
2023-02-06T07:43:33.814Z,102563.16
2023-02-06T07:44:36.002Z,102554.94
2023-02-06T07:45:39.402Z,102558.63
2023-02-06T07:46:43.237Z,102548.59
2023-02-06T07:47:45.578Z,102560.13
2023-02-06T07:48:48.239Z,102555.59
2023-02-06T07:49:50.442Z,102548.22
2023-02-06T07:50:53.242Z,102558.06
2023-02-06T07:51:55.632Z,102552.44
2023-02-06T07:52:57.885Z,102554.16
2023-02-06T07:54:00.117Z,102549.53
2023-02-06T07:55:03.778Z,102559.25
2023-02-06T07:56:13.529Z,102563.56
2023-02-06T07:57:17.519Z,102559.91
2023-02-06T07:58:19.762Z,102561.53
2023-02-06T07:59:22.499Z,102556.84
2023-02-06T08:00:24.878Z,102561.28
2023-02-06T08:01:27.464Z,102561.28
2023-02-06T08:02:29.785Z,102566.56
2023-02-06T08:03:32.651Z,102573.59
2023-02-06T08:04:36.179Z,102572.63
2023-02-06T08:05:39.739Z,102569.81
2023-02-06T08:06:44.284Z,102578.56
2023-02-06T08:07:46.523Z,102570.44
2023-02-06T08:08:49.356Z,102566.78
2023-02-06T08:09:53.247Z,102566.66
2023-02-06T08:10:55.414Z,102568.28
2023-02-06T08:11:57.695Z,102565.56
2023-02-06T08:13:00.004Z,102562.75
2023-02-06T08:14:05.418Z,102569.78
2023-02-06T08:15:08.161Z,102569.66
2023-02-06T08:16:13.911Z,102565.09
2023-02-06T08:17:17.513Z,102567.72
2023-02-06T08:18:21.470Z,102563.94
2023-02-06T08:19:23.873Z,102563.03
2023-02-06T08:20:30.127Z,102563.81
2023-02-06T08:21:32.964Z,102564.66
2023-02-06T08:22:35.165Z,102562.72
2023-02-06T08:23:39.065Z,102561.75
2023-02-06T08:24:41.400Z,102570.59
2023-02-06T08:25:45.582Z,102566.91
2023-02-06T08:26:47.896Z,102560.41
2023-02-06T08:27:56.722Z,102557.59
2023-02-06T08:29:02.597Z,102568.28
2023-02-06T08:30:05.747Z,102569.06
2023-02-06T08:31:20.733Z,102575.19
2023-02-06T08:32:25.625Z,102567.97
2023-02-06T08:33:30.948Z,102569.69
2023-02-06T08:34:34.248Z,102572.28
2023-02-06T08:35:37.029Z,102571.41
2023-02-06T08:36:41.286Z,102574.88
2023-02-06T08:37:44.433Z,102577.44
2023-02-06T08:38:47.071Z,102577.44
2023-02-06T08:39:49.323Z,102585.34
2023-02-06T08:40:52.544Z,102577.25
2023-02-06T08:41:54.821Z,102580.66
2023-02-06T08:42:57.140Z,102581.56
2023-02-06T08:44:01.480Z,102567.03
2023-02-06T08:45:04.024Z,102560.53
2023-02-06T08:46:06.250Z,102560.53
2023-02-06T08:47:10.455Z,102558.59
2023-02-06T08:48:12.988Z,102558.47
2023-02-06T08:49:20.225Z,102566.47
2023-02-06T08:50:22.520Z,102564.63
2023-02-06T08:51:28.013Z,102543.84
2023-02-06T08:52:30.460Z,102553.69
2023-02-06T08:53:32.750Z,102556.28
2023-02-06T08:54:37.237Z,102547.19
2023-02-06T08:55:42.852Z,102532.56
2023-02-06T08:56:46.481Z,102543.41
2023-02-06T08:57:48.642Z,102546.94
2023-02-06T08:58:51.080Z,102542.31
2023-02-06T08:59:53.315Z,102537.75
2023-02-06T09:00:55.620Z,102534.91
2023-02-06T09:01:58.151Z,102534.91
2023-02-06T09:03:02.665Z,102531.13
2023-02-06T09:04:10.348Z,102537.28
2023-02-06T09:05:12.545Z,102537.16
2023-02-06T09:06:15.610Z,102528.84
2023-02-06T09:07:17.829Z,102528.84
2023-02-06T09:08:20.373Z,102526.84
2023-02-06T09:09:23.279Z,102521.31
2023-02-06T09:10:27.881Z,102517.63
2023-02-06T09:11:30.917Z,102511.97
2023-02-06T09:12:33.152Z,102504.75
2023-02-06T09:13:35.924Z,102504.50
2023-02-06T09:14:38.827Z,102508.81
2023-02-06T09:15:42.250Z,102499.84
2023-02-06T09:16:45.605Z,102509.56
2023-02-06T09:17:49.771Z,102506.72
2023-02-06T09:18:54.216Z,102506.47
2023-02-06T09:20:02.212Z,102507.25
2023-02-06T09:21:17.208Z,102508.84
2023-02-06T09:22:19.482Z,102505.16
2023-02-06T09:23:22.763Z,102512.19
2023-02-06T09:24:25.567Z,102516.59
2023-02-06T09:25:27.777Z,102522.75
2023-02-06T09:26:33.625Z,102517.22
2023-02-06T09:27:36.409Z,102517.00
2023-02-06T09:28:39.000Z,102515.00
2023-02-06T09:29:41.820Z,102523.00
2023-02-06T09:30:44.054Z,102521.19
2023-02-06T09:31:47.714Z,102515.78
2023-02-06T09:32:50.837Z,102513.91
2023-02-06T09:33:53.130Z,102512.94
2023-02-06T09:34:55.396Z,102518.22
2023-02-06T09:36:09.684Z,102526.97
2023-02-06T09:37:11.929Z,102526.00
2023-02-06T09:38:14.199Z,102524.97
2023-02-06T09:39:16.521Z,102529.41
2023-02-06T09:40:24.562Z,102528.44
2023-02-06T09:41:26.712Z,102531.03
2023-02-06T09:42:37.466Z,102525.47
2023-02-06T09:43:51.614Z,102538.03
2023-02-06T09:45:17.268Z,102538.94
2023-02-06T09:46:27.545Z,102540.75
2023-02-06T09:47:34.410Z,102540.63
2023-02-06T09:48:39.449Z,102543.25
2023-02-06T09:49:49.715Z,102541.38
2023-02-06T09:51:13.133Z,102536.81
2023-02-06T09:52:34.274Z,102541.38
2023-02-06T09:53:58.478Z,102555.75
2023-02-06T09:55:17.187Z,102549.63
2023-02-06T09:56:32.794Z,102548.03
2023-02-06T09:57:42.610Z,102557.88
2023-02-06T09:58:53.854Z,102549.63
2023-02-06T10:00:00.803Z,102545.94
2023-02-06T10:01:15.276Z,102539.53
2023-02-06T10:03:02.686Z,102546.78
2023-02-06T10:04:15.087Z,102555.66
2023-02-06T10:05:26.833Z,102549.38
2023-02-06T10:06:35.944Z,102552.84
2023-02-06T10:07:52.714Z,102544.72
2023-02-06T10:09:07.300Z,102546.44
2023-02-06T10:10:34.559Z,102545.44
2023-02-06T10:11:49.530Z,102545.44
2023-02-06T10:12:58.945Z,102539.94
2023-02-06T10:14:05.763Z,102539.94
2023-02-06T10:15:14.012Z,102538.91
2023-02-06T10:16:38.306Z,102529.81
2023-02-06T10:17:55.400Z,102527.84
2023-02-06T10:19:04.679Z,102515.16
2023-02-06T10:20:18.875Z,102527.59
2023-02-06T10:21:42.919Z,102522.19
2023-02-06T10:23:04.923Z,102517.63
2023-02-06T10:24:23.841Z,102517.41
2023-02-06T10:25:34.025Z,102517.25
2023-02-06T10:26:40.723Z,102510.88
2023-02-06T10:27:45.696Z,102514.28
2023-02-06T10:28:52.793Z,102503.38
2023-02-06T10:29:55.037Z,102505.94
2023-02-06T10:31:25.116Z,102509.38
2023-02-06T10:32:44.454Z,102506.56
2023-02-06T10:33:52.488Z,102511.72
2023-02-06T10:35:20.800Z,102511.59
2023-02-06T10:36:47.772Z,102506.94
2023-02-06T10:37:53.370Z,102509.50
2023-02-06T10:39:25.219Z,102516.53
2023-02-06T10:40:43.502Z,102515.53
2023-02-06T10:41:59.233Z,102511.81
2023-02-06T10:43:18.051Z,102510.84
2023-02-06T10:44:31.997Z,102513.41
2023-02-06T10:45:50.773Z,102514.16
2023-02-06T10:46:55.424Z,102513.19
2023-02-06T10:48:04.575Z,102511.34
2023-02-06T10:49:16.264Z,102511.19
2023-02-06T10:50:25.603Z,102506.66
2023-02-06T10:51:38.020Z,102511.94
2023-02-06T10:52:40.526Z,102510.97
2023-02-06T10:53:50.179Z,102521.56
2023-02-06T10:54:57.230Z,102521.56
2023-02-06T10:56:05.834Z,102520.44
2023-02-06T10:57:16.172Z,102529.31
2023-02-06T10:58:36.231Z,102527.31
2023-02-06T10:59:43.678Z,102525.38
2023-02-06T11:00:47.038Z,102527.94
2023-02-06T11:01:55.992Z,102538.66
2023-02-06T11:03:07.451Z,102531.41
2023-02-06T11:04:34.932Z,102519.31
2023-02-06T11:05:38.865Z,102513.00
2023-02-06T11:06:42.720Z,102509.31
2023-02-06T11:07:53.244Z,102511.03
2023-02-06T11:08:56.160Z,102512.91
2023-02-06T11:10:01.351Z,102515.47
2023-02-06T11:11:29.751Z,102513.50
2023-02-06T11:12:39.294Z,102510.69
2023-02-06T11:13:41.812Z,102506.25
2023-02-06T11:14:44.080Z,102502.56
2023-02-06T11:16:15.622Z,102499.69
2023-02-06T11:17:20.532Z,102502.28
2023-02-06T11:18:28.737Z,102497.56
2023-02-06T11:19:44.503Z,102493.03
2023-02-06T11:20:48.957Z,102473.91
2023-02-06T11:21:56.742Z,102481.06
2023-02-06T11:23:23.317Z,102473.66
2023-02-06T11:24:25.689Z,102466.41
2023-02-06T11:25:31.362Z,102473.53
2023-02-06T11:26:33.645Z,102464.28
2023-02-06T11:27:36.504Z,102474.13
2023-02-06T11:28:49.351Z,102475.00
2023-02-06T11:29:52.408Z,102476.75
2023-02-06T11:31:08.968Z,102477.44
2023-02-06T11:32:30.444Z,102480.91
2023-02-06T11:33:43.338Z,102483.63
2023-02-06T11:34:57.688Z,102479.78
2023-02-06T11:36:00.612Z,102487.91
2023-02-06T11:37:04.213Z,102484.22
2023-02-06T11:38:24.661Z,102492.09
2023-02-06T11:39:33.034Z,102492.94
2023-02-06T11:40:36.014Z,102492.94
2023-02-06T11:41:38.448Z,102489.25
2023-02-06T11:42:41.402Z,102494.53
2023-02-06T11:43:43.530Z,102491.81
2023-02-06T11:44:53.046Z,102503.41
2023-02-06T11:46:16.289Z,102505.00
2023-02-06T11:47:27.525Z,102500.44
2023-02-06T11:48:42.014Z,102495.88
2023-02-06T11:49:44.253Z,102495.75
2023-02-06T11:50:54.574Z,102493.88
2023-02-06T11:52:03.924Z,102493.75
2023-02-06T11:53:09.404Z,102493.66
2023-02-06T11:54:29.892Z,102498.94
2023-02-06T11:55:36.772Z,102497.81
2023-02-06T11:56:39.228Z,102501.25
2023-02-06T11:57:41.465Z,102499.41
2023-02-06T11:58:45.179Z,102501.00
2023-02-06T11:59:55.249Z,102500.88
2023-02-06T12:01:06.674Z,102504.28
2023-02-06T12:02:26.532Z,102507.75
2023-02-06T12:03:38.794Z,102503.06
2023-02-06T12:04:41.652Z,102501.94
2023-02-06T12:05:46.434Z,102498.09
2023-02-06T12:06:49.171Z,102489.81
2023-02-06T12:08:13.870Z,102489.69
2023-02-06T12:09:16.437Z,102488.56
2023-02-06T12:10:21.697Z,102486.59
2023-02-06T12:11:45.223Z,102488.03
2023-02-06T12:12:53.107Z,102487.03
2023-02-06T12:14:05.213Z,102492.19
2023-02-06T12:15:39.768Z,102494.78
2023-02-06T12:16:40.943Z,102490.81
2023-02-06T12:17:51.473Z,102495.97
2023-02-06T12:18:58.404Z,102493.97
2023-02-06T12:20:08.567Z,102490.13
2023-02-06T12:21:24.610Z,102482.59
2023-02-06T12:22:27.011Z,102485.16
2023-02-06T12:23:36.403Z,102491.19
2023-02-06T12:24:45.412Z,102492.78
2023-02-06T12:25:55.766Z,102491.66
2023-02-06T12:27:18.206Z,102499.38
2023-02-06T12:28:37.921Z,102496.41
2023-02-06T12:29:51.496Z,102489.84
2023-02-06T12:31:00.998Z,102489.56
2023-02-06T12:32:14.854Z,102480.28
2023-02-06T12:33:37.428Z,102485.31
2023-02-06T12:35:13.581Z,102478.88
2023-02-06T12:36:26.260Z,102470.63
2023-02-06T12:37:42.893Z,102480.22
2023-02-06T12:38:53.165Z,102478.09